sensor_id;sensor_type;location;lat;lon;timestamp;P1;durP1;ratioP1;P2;durP2;ratioP2
40931;SDS011;36257;46.052;12.540;2023-05-19T00:01:31;4.80;;;2.97;;
40931;SDS011;36257;46.052;12.540;2023-05-19T00:03:57;5.45;;;3.38;;
40931;SDS011;36257;46.052;12.540;2023-05-19T00:06:27;4.68;;;3.45;;
40931;SDS011;36257;46.052;12.540;2023-05-19T00:09:02;3.53;;;2.80;;
40931;SDS011;36257;46.052;12.540;2023-05-19T00:11:33;4.55;;;3.00;;
40931;SDS011;36257;46.052;12.540;2023-05-19T00:14:00;5.18;;;3.67;;
40931;SDS011;36257;46.052;12.540;2023-05-19T00:18:54;3.73;;;2.90;;
40931;SDS011;36257;46.052;12.540;2023-05-19T00:21:21;5.15;;;3.30;;
40931;SDS011;36257;46.052;12.540;2023-05-19T00:23:47;7.18;;;3.58;;
40931;SDS011;36257;46.052;12.540;2023-05-19T00:26:13;5.13;;;3.17;;
40931;SDS011;36257;46.052;12.540;2023-05-19T00:28:39;4.55;;;3.63;;
40931;SDS011;36257;46.052;12.540;2023-05-19T00:31:04;5.60;;;3.20;;
40931;SDS011;36257;46.052;12.540;2023-05-19T00:33:30;3.63;;;3.33;;
40931;SDS011;36257;46.052;12.540;2023-05-19T00:35:57;6.25;;;3.70;;
40931;SDS011;36257;46.052;12.540;2023-05-19T00:38:24;5.65;;;3.25;;
40931;SDS011;36257;46.052;12.540;2023-05-19T00:40:50;3.70;;;3.28;;
40931;SDS011;36257;46.052;12.540;2023-05-19T00:43:15;3.97;;;3.20;;
40931;SDS011;36257;46.052;12.540;2023-05-19T00:45:41;6.68;;;3.17;;
40931;SDS011;36257;46.052;12.540;2023-05-19T00:48:07;4.75;;;3.13;;
40931;SDS011;36257;46.052;12.540;2023-05-19T00:50:32;4.80;;;3.40;;
40931;SDS011;36257;46.052;12.540;2023-05-19T00:52:58;4.00;;;3.50;;
40931;SDS011;36257;46.052;12.540;2023-05-19T00:55:25;8.20;;;3.80;;
40931;SDS011;36257;46.052;12.540;2023-05-19T00:57:53;6.75;;;3.88;;
40931;SDS011;36257;46.052;12.540;2023-05-19T01:00:20;4.20;;;3.22;;
40931;SDS011;36257;46.052;12.540;2023-05-19T01:02:46;5.28;;;3.45;;
40931;SDS011;36257;46.052;12.540;2023-05-19T01:07:40;4.55;;;2.95;;
40931;SDS011;36257;46.052;12.540;2023-05-19T01:10:06;5.18;;;3.20;;
40931;SDS011;36257;46.052;12.540;2023-05-19T01:12:32;6.82;;;4.47;;
40931;SDS011;36257;46.052;12.540;2023-05-19T01:14:59;4.87;;;4.20;;
40931;SDS011;36257;46.052;12.540;2023-05-19T01:17:29;5.00;;;3.92;;
40931;SDS011;36257;46.052;12.540;2023-05-19T01:20:19;4.30;;;3.65;;
40931;SDS011;36257;46.052;12.540;2023-05-19T01:23:10;6.18;;;3.92;;
40931;SDS011;36257;46.052;12.540;2023-05-19T01:26:21;6.10;;;3.63;;
40931;SDS011;36257;46.052;12.540;2023-05-19T01:29:16;5.63;;;3.70;;
40931;SDS011;36257;46.052;12.540;2023-05-19T01:32:00;5.05;;;3.83;;
40931;SDS011;36257;46.052;12.540;2023-05-19T01:34:28;4.05;;;3.60;;
40931;SDS011;36257;46.052;12.540;2023-05-19T01:36:55;6.57;;;4.78;;
40931;SDS011;36257;46.052;12.540;2023-05-19T01:39:23;5.13;;;3.45;;
40931;SDS011;36257;46.052;12.540;2023-05-19T01:41:50;7.53;;;4.10;;
40931;SDS011;36257;46.052;12.540;2023-05-19T01:44:17;4.75;;;3.97;;
40931;SDS011;36257;46.052;12.540;2023-05-19T01:46:44;4.40;;;3.55;;
40931;SDS011;36257;46.052;12.540;2023-05-19T01:49:09;11.10;;;4.15;;
40931;SDS011;36257;46.052;12.540;2023-05-19T01:51:36;6.95;;;3.80;;
40931;SDS011;36257;46.052;12.540;2023-05-19T01:54:01;4.00;;;3.60;;
40931;SDS011;36257;46.052;12.540;2023-05-19T02:02:21;5.00;;;4.05;;
40931;SDS011;36257;46.052;12.540;2023-05-19T02:04:54;7.32;;;4.20;;
40931;SDS011;36257;46.052;12.540;2023-05-19T02:07:33;3.97;;;3.58;;
40931;SDS011;36257;46.052;12.540;2023-05-19T02:10:10;8.13;;;4.70;;
40931;SDS011;36257;46.052;12.540;2023-05-19T02:12:40;5.05;;;3.75;;
40931;SDS011;36257;46.052;12.540;2023-05-19T02:15:10;5.55;;;3.80;;
40931;SDS011;36257;46.052;12.540;2023-05-19T02:17:39;7.72;;;4.18;;
40931;SDS011;36257;46.052;12.540;2023-05-19T02:20:07;4.85;;;3.83;;
40931;SDS011;36257;46.052;12.540;2023-05-19T02:22:33;4.88;;;4.13;;
40931;SDS011;36257;46.052;12.540;2023-05-19T02:25:00;4.75;;;4.10;;
40931;SDS011;36257;46.052;12.540;2023-05-19T02:27:25;4.57;;;4.10;;
40931;SDS011;36257;46.052;12.540;2023-05-19T02:29:51;5.38;;;4.07;;
40931;SDS011;36257;46.052;12.540;2023-05-19T02:32:17;5.82;;;4.75;;
40931;SDS011;36257;46.052;12.540;2023-05-19T02:34:42;5.80;;;3.97;;
40931;SDS011;36257;46.052;12.540;2023-05-19T02:37:12;5.75;;;4.10;;
40931;SDS011;36257;46.052;12.540;2023-05-19T02:39:39;7.60;;;4.80;;
40931;SDS011;36257;46.052;12.540;2023-05-19T02:42:05;7.35;;;4.45;;
40931;SDS011;36257;46.052;12.540;2023-05-19T02:44:31;9.73;;;4.72;;
40931;SDS011;36257;46.052;12.540;2023-05-19T02:46:57;6.43;;;4.55;;
40931;SDS011;36257;46.052;12.540;2023-05-19T02:49:22;7.57;;;4.97;;
40931;SDS011;36257;46.052;12.540;2023-05-19T02:51:48;5.68;;;5.00;;
40931;SDS011;36257;46.052;12.540;2023-05-19T02:54:14;5.53;;;4.80;;
40931;SDS011;36257;46.052;12.540;2023-05-19T02:56:39;6.65;;;4.60;;
40931;SDS011;36257;46.052;12.540;2023-05-19T02:59:05;5.95;;;4.50;;
40931;SDS011;36257;46.052;12.540;2023-05-19T03:01:30;6.15;;;4.85;;
40931;SDS011;36257;46.052;12.540;2023-05-19T03:03:56;7.03;;;4.18;;
40931;SDS011;36257;46.052;12.540;2023-05-19T03:06:22;6.60;;;5.07;;
40931;SDS011;36257;46.052;12.540;2023-05-19T03:08:48;5.47;;;4.40;;
40931;SDS011;36257;46.052;12.540;2023-05-19T03:11:14;8.50;;;5.53;;
40931;SDS011;36257;46.052;12.540;2023-05-19T03:13:40;8.30;;;5.05;;
40931;SDS011;36257;46.052;12.540;2023-05-19T03:16:06;7.32;;;5.03;;
40931;SDS011;36257;46.052;12.540;2023-05-19T03:18:32;9.77;;;5.15;;
40931;SDS011;36257;46.052;12.540;2023-05-19T03:20:59;7.30;;;4.97;;
40931;SDS011;36257;46.052;12.540;2023-05-19T03:23:24;6.35;;;5.63;;
40931;SDS011;36257;46.052;12.540;2023-05-19T03:25:50;10.68;;;5.35;;
40931;SDS011;36257;46.052;12.540;2023-05-19T03:28:18;6.25;;;5.38;;
40931;SDS011;36257;46.052;12.540;2023-05-19T03:30:44;6.10;;;4.65;;
40931;SDS011;36257;46.052;12.540;2023-05-19T03:33:10;4.78;;;4.22;;
40931;SDS011;36257;46.052;12.540;2023-05-19T03:35:35;8.13;;;5.22;;
40931;SDS011;36257;46.052;12.540;2023-05-19T03:38:01;8.63;;;4.38;;
40931;SDS011;36257;46.052;12.540;2023-05-19T03:40:27;7.55;;;5.07;;
40931;SDS011;36257;46.052;12.540;2023-05-19T03:42:52;6.38;;;5.47;;
40931;SDS011;36257;46.052;12.540;2023-05-19T03:45:18;7.22;;;4.88;;
40931;SDS011;36257;46.052;12.540;2023-05-19T03:47:45;6.30;;;4.97;;
40931;SDS011;36257;46.052;12.540;2023-05-19T03:50:11;6.25;;;5.18;;
40931;SDS011;36257;46.052;12.540;2023-05-19T03:52:37;6.32;;;4.20;;
40931;SDS011;36257;46.052;12.540;2023-05-19T03:55:04;8.57;;;4.55;;
40931;SDS011;36257;46.052;12.540;2023-05-19T03:57:31;5.18;;;4.68;;
40931;SDS011;36257;46.052;12.540;2023-05-19T03:59:57;6.88;;;4.90;;
40931;SDS011;36257;46.052;12.540;2023-05-19T04:02:23;5.18;;;4.78;;
40931;SDS011;36257;46.052;12.540;2023-05-19T04:04:49;5.85;;;4.72;;
40931;SDS011;36257;46.052;12.540;2023-05-19T04:07:15;4.68;;;4.15;;
40931;SDS011;36257;46.052;12.540;2023-05-19T04:09:41;5.03;;;4.53;;
40931;SDS011;36257;46.052;12.540;2023-05-19T04:12:07;4.43;;;4.03;;
40931;SDS011;36257;46.052;12.540;2023-05-19T04:14:32;6.40;;;4.68;;
40931;SDS011;36257;46.052;12.540;2023-05-19T04:16:58;5.40;;;4.82;;
40931;SDS011;36257;46.052;12.540;2023-05-19T04:19:24;5.88;;;4.75;;
40931;SDS011;36257;46.052;12.540;2023-05-19T04:21:50;5.18;;;4.63;;
40931;SDS011;36257;46.052;12.540;2023-05-19T04:24:15;4.63;;;4.18;;
40931;SDS011;36257;46.052;12.540;2023-05-19T04:26:41;5.03;;;4.15;;
40931;SDS011;36257;46.052;12.540;2023-05-19T04:29:10;5.32;;;4.28;;
40931;SDS011;36257;46.052;12.540;2023-05-19T04:31:38;5.65;;;4.75;;
40931;SDS011;36257;46.052;12.540;2023-05-19T04:34:05;7.90;;;3.90;;
40931;SDS011;36257;46.052;12.540;2023-05-19T04:36:32;5.63;;;4.35;;
40931;SDS011;36257;46.052;12.540;2023-05-19T04:38:58;5.38;;;3.92;;
40931;SDS011;36257;46.052;12.540;2023-05-19T04:41:31;5.60;;;4.18;;
40931;SDS011;36257;46.052;12.540;2023-05-19T04:43:58;8.00;;;4.17;;
40931;SDS011;36257;46.052;12.540;2023-05-19T04:46:23;6.28;;;4.53;;
40931;SDS011;36257;46.052;12.540;2023-05-19T04:48:50;8.15;;;4.43;;
40931;SDS011;36257;46.052;12.540;2023-05-19T04:51:17;7.03;;;4.00;;
40931;SDS011;36257;46.052;12.540;2023-05-19T04:53:43;6.63;;;4.18;;
40931;SDS011;36257;46.052;12.540;2023-05-19T04:56:09;7.82;;;4.82;;
40931;SDS011;36257;46.052;12.540;2023-05-19T04:58:39;5.07;;;4.13;;
40931;SDS011;36257;46.052;12.540;2023-05-19T05:01:05;6.57;;;5.05;;
40931;SDS011;36257;46.052;12.540;2023-05-19T05:03:33;7.25;;;4.20;;
40931;SDS011;36257;46.052;12.540;2023-05-19T05:05:59;4.40;;;4.00;;
40931;SDS011;36257;46.052;12.540;2023-05-19T05:08:25;4.72;;;3.97;;
40931;SDS011;36257;46.052;12.540;2023-05-19T05:10:51;7.45;;;4.28;;
40931;SDS011;36257;46.052;12.540;2023-05-19T05:13:19;4.50;;;3.75;;
40931;SDS011;36257;46.052;12.540;2023-05-19T05:15:46;5.20;;;4.57;;
40931;SDS011;36257;46.052;12.540;2023-05-19T05:18:13;4.53;;;3.97;;
40931;SDS011;36257;46.052;12.540;2023-05-19T05:20:40;6.25;;;4.32;;
40931;SDS011;36257;46.052;12.540;2023-05-19T05:23:07;8.27;;;3.92;;
40931;SDS011;36257;46.052;12.540;2023-05-19T05:25:33;5.85;;;4.80;;
40931;SDS011;36257;46.052;12.540;2023-05-19T05:28:00;4.82;;;3.88;;
40931;SDS011;36257;46.052;12.540;2023-05-19T05:30:29;5.28;;;4.10;;
40931;SDS011;36257;46.052;12.540;2023-05-19T05:32:54;5.18;;;4.28;;
40931;SDS011;36257;46.052;12.540;2023-05-19T05:35:21;5.40;;;4.28;;
40931;SDS011;36257;46.052;12.540;2023-05-19T05:37:48;7.30;;;4.45;;
40931;SDS011;36257;46.052;12.540;2023-05-19T05:40:13;5.95;;;4.47;;
40931;SDS011;36257;46.052;12.540;2023-05-19T05:42:39;4.85;;;4.30;;
40931;SDS011;36257;46.052;12.540;2023-05-19T05:45:05;7.55;;;4.30;;
40931;SDS011;36257;46.052;12.540;2023-05-19T05:47:31;5.75;;;4.55;;
40931;SDS011;36257;46.052;12.540;2023-05-19T05:49:57;5.05;;;3.75;;
40931;SDS011;36257;46.052;12.540;2023-05-19T05:52:24;7.25;;;4.38;;
40931;SDS011;36257;46.052;12.540;2023-05-19T05:54:54;7.30;;;4.82;;
40931;SDS011;36257;46.052;12.540;2023-05-19T05:57:20;4.85;;;4.35;;
40931;SDS011;36257;46.052;12.540;2023-05-19T05:59:46;6.63;;;4.95;;
40931;SDS011;36257;46.052;12.540;2023-05-19T06:02:12;5.32;;;4.07;;
40931;SDS011;36257;46.052;12.540;2023-05-19T06:04:37;5.00;;;4.35;;
40931;SDS011;36257;46.052;12.540;2023-05-19T06:07:03;7.95;;;5.38;;
40931;SDS011;36257;46.052;12.540;2023-05-19T06:09:29;8.52;;;4.30;;
40931;SDS011;36257;46.052;12.540;2023-05-19T06:11:56;6.40;;;4.72;;
40931;SDS011;36257;46.052;12.540;2023-05-19T06:14:24;6.03;;;4.28;;
40931;SDS011;36257;46.052;12.540;2023-05-19T06:16:49;6.40;;;4.75;;
40931;SDS011;36257;46.052;12.540;2023-05-19T06:19:15;5.78;;;4.25;;
40931;SDS011;36257;46.052;12.540;2023-05-19T06:21:42;5.68;;;4.40;;
40931;SDS011;36257;46.052;12.540;2023-05-19T06:24:07;8.50;;;5.50;;
40931;SDS011;36257;46.052;12.540;2023-05-19T06:26:33;5.65;;;4.60;;
40931;SDS011;36257;46.052;12.540;2023-05-19T06:28:59;7.13;;;5.43;;
40931;SDS011;36257;46.052;12.540;2023-05-19T06:31:24;6.35;;;5.15;;
40931;SDS011;36257;46.052;12.540;2023-05-19T06:33:52;8.73;;;4.90;;
40931;SDS011;36257;46.052;12.540;2023-05-19T06:36:18;7.03;;;5.38;;
40931;SDS011;36257;46.052;12.540;2023-05-19T06:38:43;7.97;;;5.07;;
40931;SDS011;36257;46.052;12.540;2023-05-19T06:41:09;7.40;;;4.97;;
40931;SDS011;36257;46.052;12.540;2023-05-19T06:43:35;6.88;;;5.75;;
40931;SDS011;36257;46.052;12.540;2023-05-19T06:46:00;8.07;;;4.63;;
40931;SDS011;36257;46.052;12.540;2023-05-19T06:48:26;7.10;;;5.05;;
40931;SDS011;36257;46.052;12.540;2023-05-19T06:50:52;12.48;;;5.53;;
40931;SDS011;36257;46.052;12.540;2023-05-19T06:53:18;9.02;;;6.30;;
40931;SDS011;36257;46.052;12.540;2023-05-19T06:55:45;8.15;;;5.63;;
40931;SDS011;36257;46.052;12.540;2023-05-19T06:58:10;11.35;;;5.88;;
40931;SDS011;36257;46.052;12.540;2023-05-19T07:00:36;9.05;;;5.80;;
40931;SDS011;36257;46.052;12.540;2023-05-19T07:03:01;12.50;;;6.50;;
40931;SDS011;36257;46.052;12.540;2023-05-19T07:05:27;7.97;;;6.20;;
40931;SDS011;36257;46.052;12.540;2023-05-19T07:07:53;8.45;;;5.85;;
40931;SDS011;36257;46.052;12.540;2023-05-19T07:10:18;8.02;;;5.80;;
40931;SDS011;36257;46.052;12.540;2023-05-19T07:12:45;9.32;;;6.22;;
40931;SDS011;36257;46.052;12.540;2023-05-19T07:15:11;11.20;;;5.90;;
40931;SDS011;36257;46.052;12.540;2023-05-19T07:17:37;7.30;;;5.28;;
40931;SDS011;36257;46.052;12.540;2023-05-19T07:20:03;7.78;;;5.63;;
40931;SDS011;36257;46.052;12.540;2023-05-19T07:22:34;8.63;;;6.15;;
40931;SDS011;36257;46.052;12.540;2023-05-19T07:25:00;5.75;;;4.85;;
40931;SDS011;36257;46.052;12.540;2023-05-19T07:27:26;5.75;;;4.03;;
40931;SDS011;36257;46.052;12.540;2023-05-19T07:29:51;6.35;;;3.75;;
40931;SDS011;36257;46.052;12.540;2023-05-19T07:32:18;5.45;;;3.95;;
40931;SDS011;36257;46.052;12.540;2023-05-19T07:34:43;7.45;;;4.03;;
40931;SDS011;36257;46.052;12.540;2023-05-19T07:37:09;6.03;;;4.28;;
40931;SDS011;36257;46.052;12.540;2023-05-19T07:39:35;7.10;;;4.38;;
40931;SDS011;36257;46.052;12.540;2023-05-19T07:42:01;6.20;;;4.93;;
40931;SDS011;36257;46.052;12.540;2023-05-19T07:44:26;7.22;;;4.65;;
40931;SDS011;36257;46.052;12.540;2023-05-19T07:46:55;12.77;;;5.10;;
40931;SDS011;36257;46.052;12.540;2023-05-19T07:49:20;5.38;;;4.70;;
40931;SDS011;36257;46.052;12.540;2023-05-19T07:51:46;6.22;;;4.15;;
40931;SDS011;36257;46.052;12.540;2023-05-19T07:54:12;6.30;;;3.92;;
40931;SDS011;36257;46.052;12.540;2023-05-19T07:56:37;4.32;;;3.78;;
40931;SDS011;36257;46.052;12.540;2023-05-19T07:59:03;5.30;;;3.70;;
40931;SDS011;36257;46.052;12.540;2023-05-19T08:01:29;6.13;;;3.80;;
40931;SDS011;36257;46.052;12.540;2023-05-19T08:03:56;5.75;;;4.65;;
40931;SDS011;36257;46.052;12.540;2023-05-19T08:06:22;9.82;;;4.15;;
40931;SDS011;36257;46.052;12.540;2023-05-19T08:08:49;5.57;;;3.95;;
40931;SDS011;36257;46.052;12.540;2023-05-19T08:11:15;3.92;;;3.53;;
40931;SDS011;36257;46.052;12.540;2023-05-19T08:13:40;5.03;;;4.05;;
40931;SDS011;36257;46.052;12.540;2023-05-19T08:16:06;5.28;;;3.83;;
40931;SDS011;36257;46.052;12.540;2023-05-19T08:18:32;6.55;;;4.55;;
40931;SDS011;36257;46.052;12.540;2023-05-19T08:20:57;4.43;;;4.03;;
40931;SDS011;36257;46.052;12.540;2023-05-19T08:23:23;4.70;;;4.25;;
40931;SDS011;36257;46.052;12.540;2023-05-19T08:25:49;8.65;;;4.20;;
40931;SDS011;36257;46.052;12.540;2023-05-19T08:28:15;6.10;;;4.70;;
40931;SDS011;36257;46.052;12.540;2023-05-19T08:30:40;8.23;;;4.75;;
40931;SDS011;36257;46.052;12.540;2023-05-19T08:33:06;5.72;;;4.93;;
40931;SDS011;36257;46.052;12.540;2023-05-19T08:35:32;7.18;;;4.57;;
40931;SDS011;36257;46.052;12.540;2023-05-19T08:37:58;7.93;;;5.05;;
40931;SDS011;36257;46.052;12.540;2023-05-19T08:40:24;6.50;;;4.53;;
40931;SDS011;36257;46.052;12.540;2023-05-19T08:42:51;6.80;;;4.57;;
40931;SDS011;36257;46.052;12.540;2023-05-19T08:45:18;10.77;;;4.70;;
40931;SDS011;36257;46.052;12.540;2023-05-19T08:47:44;8.70;;;4.60;;
40931;SDS011;36257;46.052;12.540;2023-05-19T08:50:11;11.70;;;4.88;;
40931;SDS011;36257;46.052;12.540;2023-05-19T08:58:03;5.68;;;4.95;;
40931;SDS011;36257;46.052;12.540;2023-05-19T09:00:29;7.65;;;4.78;;
40931;SDS011;36257;46.052;12.540;2023-05-19T09:02:55;7.57;;;4.78;;
40931;SDS011;36257;46.052;12.540;2023-05-19T09:05:21;5.88;;;3.95;;
40931;SDS011;36257;46.052;12.540;2023-05-19T09:07:48;11.00;;;4.50;;
40931;SDS011;36257;46.052;12.540;2023-05-19T09:10:13;6.45;;;3.15;;
40931;SDS011;36257;46.052;12.540;2023-05-19T09:12:43;3.92;;;2.97;;
40931;SDS011;36257;46.052;12.540;2023-05-19T09:15:11;3.33;;;2.85;;
40931;SDS011;36257;46.052;12.540;2023-05-19T09:17:37;3.45;;;2.50;;
40931;SDS011;36257;46.052;12.540;2023-05-19T09:20:04;4.07;;;2.70;;
40931;SDS011;36257;46.052;12.540;2023-05-19T09:22:41;2.80;;;2.45;;
40931;SDS011;36257;46.052;12.540;2023-05-19T09:25:23;4.43;;;2.90;;
40931;SDS011;36257;46.052;12.540;2023-05-19T09:27:49;6.15;;;2.05;;
40931;SDS011;36257;46.052;12.540;2023-05-19T09:30:16;4.80;;;1.35;;
40931;SDS011;36257;46.052;12.540;2023-05-19T09:32:42;2.43;;;1.93;;
40931;SDS011;36257;46.052;12.540;2023-05-19T09:35:08;3.22;;;1.63;;
40931;SDS011;36257;46.052;12.540;2023-05-19T09:37:37;1.48;;;1.10;;
40931;SDS011;36257;46.052;12.540;2023-05-19T09:40:05;3.40;;;1.27;;
40931;SDS011;36257;46.052;12.540;2023-05-19T09:42:37;3.65;;;1.10;;
40931;SDS011;36257;46.052;12.540;2023-05-19T09:45:05;3.22;;;1.35;;
40931;SDS011;36257;46.052;12.540;2023-05-19T09:47:35;2.33;;;1.58;;
40931;SDS011;36257;46.052;12.540;2023-05-19T09:50:03;6.28;;;1.60;;
40931;SDS011;36257;46.052;12.540;2023-05-19T09:52:34;2.40;;;1.20;;
40931;SDS011;36257;46.052;12.540;2023-05-19T09:55:01;1.65;;;1.33;;
40931;SDS011;36257;46.052;12.540;2023-05-19T09:57:31;9.18;;;1.45;;
40931;SDS011;36257;46.052;12.540;2023-05-19T09:59:59;2.40;;;1.77;;
40931;SDS011;36257;46.052;12.540;2023-05-19T10:02:40;5.43;;;1.48;;
40931;SDS011;36257;46.052;12.540;2023-05-19T10:05:09;3.88;;;1.48;;
40931;SDS011;36257;46.052;12.540;2023-05-19T10:07:38;2.03;;;1.40;;
40931;SDS011;36257;46.052;12.540;2023-05-19T10:10:07;1.77;;;1.13;;
40931;SDS011;36257;46.052;12.540;2023-05-19T10:12:33;2.55;;;1.48;;
40931;SDS011;36257;46.052;12.540;2023-05-19T10:15:00;2.50;;;1.60;;
40931;SDS011;36257;46.052;12.540;2023-05-19T10:17:27;1.90;;;1.23;;
40931;SDS011;36257;46.052;12.540;2023-05-19T10:19:53;1.75;;;1.40;;
40931;SDS011;36257;46.052;12.540;2023-05-19T10:22:19;3.30;;;1.30;;
40931;SDS011;36257;46.052;12.540;2023-05-19T10:24:45;4.70;;;1.10;;
40931;SDS011;36257;46.052;12.540;2023-05-19T10:27:11;6.35;;;1.70;;
40931;SDS011;36257;46.052;12.540;2023-05-19T10:29:40;1.52;;;1.30;;
40931;SDS011;36257;46.052;12.540;2023-05-19T10:32:16;2.67;;;1.67;;
40931;SDS011;36257;46.052;12.540;2023-05-19T10:40:55;4.28;;;1.10;;
40931;SDS011;36257;46.052;12.540;2023-05-19T10:43:18;0.90;;;0.82;;
40931;SDS011;36257;46.052;12.540;2023-05-19T10:45:50;2.88;;;0.73;;
40931;SDS011;36257;46.052;12.540;2023-05-19T10:48:20;1.48;;;0.95;;
40931;SDS011;36257;46.052;12.540;2023-05-19T10:50:47;3.65;;;1.42;;
40931;SDS011;36257;46.052;12.540;2023-05-19T10:53:17;2.70;;;1.10;;
40931;SDS011;36257;46.052;12.540;2023-05-19T10:55:49;3.17;;;1.33;;
40931;SDS011;36257;46.052;12.540;2023-05-19T10:58:35;1.05;;;0.93;;
40931;SDS011;36257;46.052;12.540;2023-05-19T11:01:13;1.05;;;0.95;;
40931;SDS011;36257;46.052;12.540;2023-05-19T11:03:53;2.00;;;0.98;;
40931;SDS011;36257;46.052;12.540;2023-05-19T11:06:28;1.00;;;0.88;;
40931;SDS011;36257;46.052;12.540;2023-05-19T11:08:55;1.27;;;0.98;;
40931;SDS011;36257;46.052;12.540;2023-05-19T11:11:21;0.70;;;0.70;;
40931;SDS011;36257;46.052;12.540;2023-05-19T11:13:53;0.95;;;0.90;;
40931;SDS011;36257;46.052;12.540;2023-05-19T11:16:26;1.08;;;0.80;;
40931;SDS011;36257;46.052;12.540;2023-05-19T11:18:54;1.55;;;1.45;;
40931;SDS011;36257;46.052;12.540;2023-05-19T11:21:20;1.20;;;1.10;;
40931;SDS011;36257;46.052;12.540;2023-05-19T11:23:46;1.48;;;1.15;;
40931;SDS011;36257;46.052;12.540;2023-05-19T11:26:11;1.42;;;0.90;;
40931;SDS011;36257;46.052;12.540;2023-05-19T11:28:37;2.58;;;0.82;;
40931;SDS011;36257;46.052;12.540;2023-05-19T11:31:04;1.90;;;1.17;;
40931;SDS011;36257;46.052;12.540;2023-05-19T11:33:32;0.82;;;0.77;;
40931;SDS011;36257;46.052;12.540;2023-05-19T11:35:58;1.73;;;1.40;;
40931;SDS011;36257;46.052;12.540;2023-05-19T11:38:24;1.27;;;1.17;;
40931;SDS011;36257;46.052;12.540;2023-05-19T11:40:53;1.57;;;1.10;;
40931;SDS011;36257;46.052;12.540;2023-05-19T11:43:23;1.17;;;1.02;;
40931;SDS011;36257;46.052;12.540;2023-05-19T11:45:50;1.55;;;1.00;;
40931;SDS011;36257;46.052;12.540;2023-05-19T11:48:19;2.53;;;1.02;;
40931;SDS011;36257;46.052;12.540;2023-05-19T11:50:46;1.20;;;1.00;;
40931;SDS011;36257;46.052;12.540;2023-05-19T11:53:12;2.65;;;1.10;;
40931;SDS011;36257;46.052;12.540;2023-05-19T11:55:41;1.45;;;0.85;;
40931;SDS011;36257;46.052;12.540;2023-05-19T11:58:11;3.13;;;1.00;;
40931;SDS011;36257;46.052;12.540;2023-05-19T12:00:37;1.88;;;1.20;;
40931;SDS011;36257;46.052;12.540;2023-05-19T12:03:05;3.60;;;1.10;;
40931;SDS011;36257;46.052;12.540;2023-05-19T12:05:31;4.97;;;1.27;;
40931;SDS011;36257;46.052;12.540;2023-05-19T12:07:58;2.03;;;1.20;;
40931;SDS011;36257;46.052;12.540;2023-05-19T12:10:29;2.40;;;1.02;;
40931;SDS011;36257;46.052;12.540;2023-05-19T12:12:55;3.55;;;1.40;;
40931;SDS011;36257;46.052;12.540;2023-05-19T12:15:23;4.80;;;1.15;;
40931;SDS011;36257;46.052;12.540;2023-05-19T12:17:49;2.50;;;1.43;;
40931;SDS011;36257;46.052;12.540;2023-05-19T12:20:18;1.17;;;1.10;;
40931;SDS011;36257;46.052;12.540;2023-05-19T12:22:45;2.38;;;1.27;;
40931;SDS011;36257;46.052;12.540;2023-05-19T12:25:11;5.05;;;1.13;;
40931;SDS011;36257;46.052;12.540;2023-05-19T12:27:38;2.28;;;0.85;;
40931;SDS011;36257;46.052;12.540;2023-05-19T12:30:07;1.08;;;0.98;;
40931;SDS011;36257;46.052;12.540;2023-05-19T12:32:33;1.13;;;1.00;;
40931;SDS011;36257;46.052;12.540;2023-05-19T12:35:01;1.10;;;0.80;;
40931;SDS011;36257;46.052;12.540;2023-05-19T12:37:28;1.33;;;0.80;;
40931;SDS011;36257;46.052;12.540;2023-05-19T12:39:54;1.58;;;0.90;;
40931;SDS011;36257;46.052;12.540;2023-05-19T12:42:21;2.53;;;0.80;;
40931;SDS011;36257;46.052;12.540;2023-05-19T12:44:48;4.27;;;1.20;;
40931;SDS011;36257;46.052;12.540;2023-05-19T12:47:16;1.17;;;0.90;;
40931;SDS011;36257;46.052;12.540;2023-05-19T12:49:55;1.25;;;0.95;;
40931;SDS011;36257;46.052;12.540;2023-05-19T12:52:32;3.95;;;1.30;;
40931;SDS011;36257;46.052;12.540;2023-05-19T12:55:24;2.35;;;1.10;;
40931;SDS011;36257;46.052;12.540;2023-05-19T12:57:54;2.40;;;1.23;;
40931;SDS011;36257;46.052;12.540;2023-05-19T13:00:22;2.58;;;1.13;;
40931;SDS011;36257;46.052;12.540;2023-05-19T13:03:07;3.42;;;1.23;;
40931;SDS011;36257;46.052;12.540;2023-05-19T13:05:39;12.95;;;1.98;;
40931;SDS011;36257;46.052;12.540;2023-05-19T13:08:11;1.30;;;1.20;;
40931;SDS011;36257;46.052;12.540;2023-05-19T13:10:39;2.15;;;1.23;;
40931;SDS011;36257;46.052;12.540;2023-05-19T13:13:06;1.13;;;1.02;;
40931;SDS011;36257;46.052;12.540;2023-05-19T13:15:33;1.70;;;1.20;;
40931;SDS011;36257;46.052;12.540;2023-05-19T13:18:02;1.38;;;1.17;;
40931;SDS011;36257;46.052;12.540;2023-05-19T13:20:30;6.10;;;1.83;;
40931;SDS011;36257;46.052;12.540;2023-05-19T13:22:57;6.45;;;1.80;;
40931;SDS011;36257;46.052;12.540;2023-05-19T13:25:23;2.97;;;1.60;;
40931;SDS011;36257;46.052;12.540;2023-05-19T13:27:49;4.50;;;1.58;;
40931;SDS011;36257;46.052;12.540;2023-05-19T13:30:15;2.45;;;1.65;;
40931;SDS011;36257;46.052;12.540;2023-05-19T13:32:41;1.98;;;1.27;;
40931;SDS011;36257;46.052;12.540;2023-05-19T13:35:08;2.03;;;1.20;;
40931;SDS011;36257;46.052;12.540;2023-05-19T13:37:34;2.72;;;1.60;;
40931;SDS011;36257;46.052;12.540;2023-05-19T13:40:00;1.83;;;1.33;;
40931;SDS011;36257;46.052;12.540;2023-05-19T13:42:26;2.13;;;1.40;;
40931;SDS011;36257;46.052;12.540;2023-05-19T13:44:55;1.77;;;1.30;;
40931;SDS011;36257;46.052;12.540;2023-05-19T13:47:24;3.03;;;1.63;;
40931;SDS011;36257;46.052;12.540;2023-05-19T13:49:50;1.75;;;1.65;;
40931;SDS011;36257;46.052;12.540;2023-05-19T13:52:16;1.80;;;1.48;;
40931;SDS011;36257;46.052;12.540;2023-05-19T13:54:43;4.40;;;1.60;;
40931;SDS011;36257;46.052;12.540;2023-05-19T13:57:08;4.47;;;2.05;;
40931;SDS011;36257;46.052;12.540;2023-05-19T13:59:34;2.72;;;1.80;;
40931;SDS011;36257;46.052;12.540;2023-05-19T14:02:00;2.10;;;1.70;;
40931;SDS011;36257;46.052;12.540;2023-05-19T14:04:29;2.58;;;1.65;;
40931;SDS011;36257;46.052;12.540;2023-05-19T14:06:55;1.80;;;1.63;;
40931;SDS011;36257;46.052;12.540;2023-05-19T14:09:21;4.47;;;1.88;;
40931;SDS011;36257;46.052;12.540;2023-05-19T14:11:47;2.90;;;1.85;;
40931;SDS011;36257;46.052;12.540;2023-05-19T14:14:13;4.03;;;1.80;;
40931;SDS011;36257;46.052;12.540;2023-05-19T14:16:39;5.47;;;2.17;;
40931;SDS011;36257;46.052;12.540;2023-05-19T14:19:05;2.10;;;1.60;;
40931;SDS011;36257;46.052;12.540;2023-05-19T14:21:30;2.50;;;2.00;;
40931;SDS011;36257;46.052;12.540;2023-05-19T14:23:56;2.00;;;1.83;;
40931;SDS011;36257;46.052;12.540;2023-05-19T14:26:22;3.65;;;2.05;;
40931;SDS011;36257;46.052;12.540;2023-05-19T14:28:48;2.60;;;1.90;;
40931;SDS011;36257;46.052;12.540;2023-05-19T14:31:13;3.53;;;2.63;;
40931;SDS011;36257;46.052;12.540;2023-05-19T14:33:39;2.53;;;1.83;;
40931;SDS011;36257;46.052;12.540;2023-05-19T14:36:06;4.70;;;2.08;;
40931;SDS011;36257;46.052;12.540;2023-05-19T14:38:32;3.00;;;2.22;;
40931;SDS011;36257;46.052;12.540;2023-05-19T14:40:58;3.63;;;2.00;;
40931;SDS011;36257;46.052;12.540;2023-05-19T14:43:23;7.63;;;4.50;;
40931;SDS011;36257;46.052;12.540;2023-05-19T14:45:49;2.60;;;2.28;;
40931;SDS011;36257;46.052;12.540;2023-05-19T14:48:15;2.38;;;1.90;;
40931;SDS011;36257;46.052;12.540;2023-05-19T14:50:40;5.80;;;2.10;;
40931;SDS011;36257;46.052;12.540;2023-05-19T14:53:06;5.60;;;2.38;;
40931;SDS011;36257;46.052;12.540;2023-05-19T14:55:32;6.20;;;1.80;;
40931;SDS011;36257;46.052;12.540;2023-05-19T14:57:57;4.28;;;1.83;;